createdAt,value
2022-08-05T00:02:07.992Z,76.67
2022-08-05T00:04:38.399Z,77.52
2022-08-05T00:07:27.063Z,77.02
2022-08-05T00:09:53.362Z,77.07
2022-08-05T00:12:21.337Z,77.22
2022-08-05T00:14:48.342Z,77.02
2022-08-05T00:17:19.591Z,77.25
2022-08-05T00:20:02.599Z,77.23
2022-08-05T00:22:29.877Z,77.49
2022-08-05T00:24:57.293Z,77.57
2022-08-05T00:27:28.514Z,77.71
2022-08-05T00:30:04.963Z,77.73
2022-08-05T00:32:37.802Z,77.80
2022-08-05T00:35:07.862Z,77.66
2022-08-05T00:37:35.612Z,77.72
2022-08-05T00:40:28.179Z,78.01
2022-08-05T00:42:59.364Z,78.00
2022-08-05T00:45:38.046Z,78.23
2022-08-05T00:48:07.031Z,78.31
2022-08-05T00:50:34.250Z,78.50
2022-08-05T00:53:00.577Z,78.49
2022-08-05T00:55:42.217Z,78.59
2022-08-05T00:58:13.861Z,78.53
2022-08-05T01:00:42.213Z,78.45
2022-08-05T01:03:10.309Z,78.53
2022-08-05T01:05:40.311Z,78.67
2022-08-05T01:08:39.826Z,79.81
2022-08-05T01:11:07.499Z,79.20
2022-08-05T01:13:58.765Z,79.06
2022-08-05T01:16:34.717Z,78.92
2022-08-05T01:19:11.111Z,79.06
2022-08-05T01:22:05.368Z,78.51
2022-08-05T01:24:50.089Z,78.19
2022-08-05T01:27:50.549Z,78.26
2022-08-05T01:30:34.675Z,78.37
2022-08-05T01:33:03.861Z,78.77
2022-08-05T01:35:50.836Z,78.87
2022-08-05T01:38:24.737Z,79.22
2022-08-05T01:40:54.542Z,80.19
2022-08-05T01:43:24.153Z,80.00
2022-08-05T01:45:54.089Z,80.03
2022-08-05T01:48:25.375Z,80.22
2022-08-05T01:50:52.490Z,80.58
2022-08-05T01:53:54.500Z,80.71
2022-08-05T01:56:09.656Z,80.85
2022-08-05T01:58:41.036Z,81.14
2022-08-05T02:01:24.553Z,81.52
2022-08-05T02:03:53.331Z,81.54
2022-08-05T02:06:37.355Z,81.86
2022-08-05T02:09:05.729Z,82.08
2022-08-05T02:11:52.558Z,82.36
2022-08-05T02:14:28.054Z,82.83
2022-08-05T02:16:55.612Z,82.83
2022-08-05T02:19:28.330Z,82.90
2022-08-05T02:22:04.331Z,83.11
2022-08-05T02:24:37.551Z,83.27
2022-08-05T02:27:09.870Z,83.49
2022-08-05T02:29:58.921Z,83.66
2022-08-05T02:32:29.428Z,83.79
2022-08-05T02:35:13.353Z,83.97
2022-08-05T02:37:47.723Z,84.30
2022-08-05T02:40:21.481Z,84.82
2022-08-05T02:42:52.774Z,84.76
2022-08-05T02:45:20.189Z,84.91
2022-08-05T02:48:07.458Z,85.27
2022-08-05T02:50:38.985Z,85.33
2022-08-05T02:53:15.955Z,85.83
2022-08-05T02:55:53.764Z,85.85
2022-08-05T02:58:23.233Z,86.21
2022-08-05T03:00:55.618Z,86.06
2022-08-05T03:03:23.613Z,86.55
2022-08-05T03:06:56.395Z,86.68
2022-08-05T03:08:39.098Z,87.22
2022-08-05T03:11:54.861Z,87.16
2022-08-05T03:14:24.337Z,87.01
2022-08-05T03:16:53.482Z,87.60
2022-08-05T03:19:34.579Z,87.56
2022-08-05T03:22:04.747Z,87.44
2022-08-05T03:24:44.780Z,87.69
2022-08-05T03:27:14.316Z,87.83
2022-08-05T03:29:44.837Z,88.21
2022-08-05T03:32:31.059Z,87.63
2022-08-05T03:34:57.801Z,87.60
2022-08-05T03:37:24.945Z,87.70
2022-08-05T03:39:58.746Z,87.97
2022-08-05T03:42:29.074Z,88.16
2022-08-05T03:44:56.007Z,87.94
2022-08-05T03:47:23.584Z,88.17
2022-08-05T03:49:51.282Z,88.00
2022-08-05T03:52:50.258Z,88.69
2022-08-05T03:56:03.748Z,88.61
2022-08-05T03:58:05.667Z,88.52
2022-08-05T04:00:32.498Z,88.12
2022-08-05T04:03:00.536Z,87.97
2022-08-05T04:05:33.753Z,87.74
2022-08-05T04:08:14.585Z,88.14
2022-08-05T04:10:50.189Z,88.24
2022-08-05T04:13:18.583Z,87.55
2022-08-05T04:15:52.599Z,86.69
2022-08-05T04:18:30.285Z,86.58
2022-08-05T04:20:57.661Z,86.32
2022-08-05T04:24:04.960Z,86.53
2022-08-05T04:26:14.285Z,86.53
2022-08-05T04:28:51.235Z,86.15
2022-08-05T04:31:19.894Z,86.60
2022-08-05T04:34:17.119Z,85.61
2022-08-05T04:36:45.892Z,85.51
2022-08-05T04:39:15.926Z,85.63
2022-08-05T04:41:42.537Z,85.45
2022-08-05T04:44:10.693Z,85.18
2022-08-05T04:46:38.491Z,85.41
2022-08-05T04:49:12.139Z,85.25
2022-08-05T04:51:41.027Z,85.03
2022-08-05T04:54:09.340Z,84.36
2022-08-05T04:56:37.338Z,84.02
2022-08-05T04:59:21.667Z,84.21
2022-08-05T05:02:35.198Z,83.96
2022-08-05T05:04:38.382Z,83.82
2022-08-05T05:07:11.613Z,83.87
2022-08-05T05:09:42.283Z,82.93
2022-08-05T05:12:11.534Z,83.01
2022-08-05T05:14:38.073Z,83.06
2022-08-05T05:17:22.734Z,83.08
2022-08-05T05:19:50.432Z,83.08
2022-08-05T05:22:23.591Z,82.37
2022-08-05T05:24:56.916Z,82.42
2022-08-05T05:27:41.600Z,82.42
2022-08-05T05:30:30.659Z,82.10
2022-08-05T05:33:14.104Z,81.27
2022-08-05T05:35:43.621Z,80.79
2022-08-05T05:38:13.374Z,80.57
2022-08-05T05:40:43.846Z,80.30
2022-08-05T05:43:27.806Z,80.46
2022-08-05T05:46:05.085Z,80.07
2022-08-05T05:48:32.476Z,78.39
2022-08-05T05:51:14.753Z,78.35
2022-08-05T05:53:54.665Z,78.42
2022-08-05T05:56:32.825Z,76.33
2022-08-05T05:59:06.695Z,76.56
2022-08-05T06:01:37.495Z,76.25
2022-08-05T06:04:11.871Z,75.89
2022-08-05T06:06:42.887Z,75.77
2022-08-05T06:09:16.603Z,75.04
2022-08-05T06:11:59.259Z,74.17
2022-08-05T06:14:27.985Z,73.93
2022-08-05T06:16:55.245Z,71.96
2022-08-05T06:19:32.916Z,71.79
2022-08-05T06:22:03.108Z,70.97
2022-08-05T06:24:29.660Z,70.70
2022-08-05T06:26:57.428Z,70.65
2022-08-05T06:29:46.948Z,69.22
2022-08-05T06:32:25.037Z,69.41
2022-08-05T06:34:56.838Z,67.98
2022-08-05T06:37:52.276Z,67.62
2022-08-05T06:40:11.898Z,67.46
2022-08-05T06:42:39.885Z,64.94
2022-08-05T06:45:08.909Z,62.90
2022-08-05T06:48:37.245Z,60.67
2022-08-05T06:50:22.949Z,58.78
2022-08-05T06:53:03.971Z,57.66
2022-08-05T06:55:36.836Z,55.83
2022-08-05T06:58:19.938Z,52.06
2022-08-05T07:00:50.928Z,50.61
2022-08-05T07:03:17.858Z,51.11
2022-08-05T07:05:44.715Z,48.93
2022-08-05T07:08:12.771Z,49.31
2022-08-05T07:10:53.379Z,49.32
2022-08-05T07:13:57.628Z,48.70
2022-08-05T07:17:56.727Z,48.25
2022-08-05T07:20:16.898Z,46.09
2022-08-05T07:22:17.587Z,45.73
2022-08-05T07:24:52.650Z,46.01
2022-08-05T07:27:20.335Z,44.67
2022-08-05T07:30:22.250Z,43.68
2022-08-05T07:32:38.695Z,42.36
2022-08-05T07:36:04.525Z,41.38
2022-08-05T07:37:55.946Z,41.87
2022-08-05T07:40:27.111Z,41.19
2022-08-05T07:42:59.461Z,40.28
2022-08-05T07:45:58.014Z,39.46
2022-08-05T07:49:00.564Z,38.65
2022-08-05T07:51:04.796Z,37.49
2022-08-05T07:53:50.522Z,36.38
2022-08-05T07:57:00.441Z,36.80
2022-08-05T07:59:04.676Z,36.42
2022-08-05T08:01:34.970Z,35.41
2022-08-05T08:04:03.127Z,34.92
2022-08-05T08:06:32.643Z,34.61
2022-08-05T08:08:59.806Z,33.47
2022-08-05T08:11:49.519Z,33.49
2022-08-05T08:14:18.203Z,32.42
2022-08-05T08:16:50.993Z,33.56
2022-08-05T08:20:21.494Z,32.47
2022-08-05T08:22:04.827Z,32.54
2022-08-05T08:24:51.525Z,31.44
2022-08-05T08:27:18.491Z,32.05
2022-08-05T08:30:03.608Z,31.71
2022-08-05T08:32:34.231Z,30.53
2022-08-05T08:35:07.356Z,29.71
2022-08-05T08:37:40.323Z,29.84
2022-08-05T08:40:11.999Z,29.30
2022-08-05T08:42:50.345Z,28.91
2022-08-05T08:45:26.977Z,28.04
2022-08-05T08:48:10.461Z,27.30
2022-08-05T08:51:07.746Z,28.31
2022-08-05T08:53:36.421Z,27.92
2022-08-05T08:56:06.030Z,27.75
2022-08-05T08:58:43.949Z,27.55
2022-08-05T09:01:15.883Z,25.65
2022-08-05T09:03:46.176Z,26.62
2022-08-05T09:06:18.514Z,26.44
2022-08-05T09:08:47.458Z,26.69
2022-08-05T09:11:15.383Z,26.37
2022-08-05T09:14:00.888Z,24.22
2022-08-05T09:16:32.259Z,23.90
2022-08-05T09:18:59.633Z,23.47
2022-08-05T09:22:22.143Z,24.20
2022-08-05T09:24:15.438Z,23.81
2022-08-05T09:26:43.763Z,22.75
2022-08-05T09:29:10.635Z,23.00
2022-08-05T09:32:46.501Z,23.00
2022-08-05T09:34:47.200Z,23.78
2022-08-05T09:38:13.030Z,22.55
2022-08-05T09:40:07.790Z,22.42
2022-08-05T09:42:43.673Z,22.89
2022-08-05T09:46:04.525Z,21.80
2022-08-05T09:48:01.552Z,20.47
2022-08-05T09:50:44.800Z,20.64
2022-08-05T09:53:22.981Z,20.34
2022-08-05T09:56:04.673Z,19.73
2022-08-05T09:58:37.984Z,18.51
2022-08-05T10:01:14.649Z,19.64
2022-08-05T10:04:00.137Z,18.90
2022-08-05T10:06:27.916Z,19.03
2022-08-05T10:08:55.638Z,19.46
2022-08-05T10:11:22.926Z,17.79
2022-08-05T10:13:49.567Z,18.89
2022-08-05T10:16:29.935Z,18.52
2022-08-05T10:18:56.570Z,18.49
2022-08-05T10:21:23.922Z,18.02
2022-08-05T10:23:58.775Z,17.28
2022-08-05T10:26:32.375Z,18.06
2022-08-05T10:28:59.380Z,17.96
2022-08-05T10:32:55.165Z,17.31
2022-08-05T10:34:12.431Z,17.27
2022-08-05T10:36:41.389Z,17.24
2022-08-05T10:39:15.340Z,16.87
2022-08-05T10:42:14.503Z,17.11
2022-08-05T10:44:46.140Z,18.28
2022-08-05T10:47:26.805Z,17.52
2022-08-05T10:50:32.863Z,16.56
2022-08-05T10:53:04.017Z,16.00
2022-08-05T10:55:38.443Z,17.09
2022-08-05T10:58:20.539Z,16.61
2022-08-05T11:00:48.120Z,16.75
2022-08-05T11:03:25.226Z,16.92
2022-08-05T11:06:20.065Z,15.72
2022-08-05T11:09:24.478Z,16.07
2022-08-05T11:12:06.329Z,16.50
2022-08-05T11:18:00.118Z,16.61
2022-08-05T11:20:41.556Z,17.24
2022-08-05T11:24:02.818Z,17.71
2022-08-05T11:26:28.626Z,17.78
2022-08-05T11:29:06.675Z,17.87
2022-08-05T11:31:56.271Z,17.89
2022-08-05T11:34:51.257Z,18.22
2022-08-05T11:38:28.889Z,17.72
2022-08-05T11:41:12.970Z,18.62
2022-08-05T11:44:05.874Z,17.69
2022-08-05T11:46:37.528Z,18.35
2022-08-05T11:49:05.487Z,18.01
2022-08-05T11:51:44.410Z,18.47
2022-08-05T11:54:33.720Z,18.44
2022-08-05T11:57:08.561Z,18.77
